Airport View

Enter AWOS ICAO identifier for current METAR.

ex. KFNL

KCID 191252Z 25013KT 10SM OVC010 15/14 A2952 RMK AO2 RAE03 SLP994 P0000 T01500144 $

19 May 2019 13:19

Phone: 319-558-5153

Other Area AWOS: KIOW - KVTI - KMXO - KIIB

TAF AMD KCID 191236Z 1913/2012 20010KT P6SM BKN007 OVC050 TEMPO 1913/1915 6SM -SHRA BR SCT008 BKN030 FM191500 27016G26KT P6SM OVC015 FM192100 28018G31KT P6SM BKN020 FM200300 31014G22KT P6SM BKN020